Accueil
METAR-TAF:

METAR-TAF

Aéroports :

Gênes, Italie

Aéroport de Gênes-Christophe Colomb

latitude: 44-25N, longitude: 008-51E, altitude: 2 m

Observation

Le bulletin a été fait il y a 33 minutes, à 10:20 UTC
Vent 15 kt de sud
Température 24°C
Humidité 61%
Pression 1003 hPa
Visibilité 10 km ou plus
Quelques nuages à une hauteur de 2700 ft

METAR: LIMJ 291020Z 19015KT 9999 FEW027 24/16 Q1003

Heure: 12:53 (10:53 UTC)

Prévision

Le bulletin a été fait il y a 5 heures et 53 minutes, à 05:00 UTC
Prévision valable du 29 à 06 UTC au 30 à 06 UTC
Vent 7 kt de nord-est
Visibilité 10 km ou plus
Nuages épars à une hauteur de 2500 ft
Evoluant progressivement
du 29 à 08 UTC au 29 à 10 UTC
Vent 20 kt de sud/sud-ouest

TAF: LIMJ 290500Z 2906/3006 05007KT 9999 SCT025 BECMG 2908/2910 20020KT

Observations et prévisions météorologiques de plus de 4000 aéroports (messages METAR et TAF).

Les stations disponibles sont représentées par des disques jaunes et rouges sur la carte.

Passer la souris dessus pour voir le nom de la station.

Cliquer dessus pour voir les observations et prévisions météorologiques.

Pour changer de carte: cliquez sur les boutons verts avec une croix noire pour zoomer, sur le bouton vert avec un tiret pour effectuer un zoom arrière, ou sur les flèches vertes pour les cartes adjacentes.


METAR-TAF: